createdAt,value
2018-09-06T00:00:06.799Z,97
2018-09-06T00:01:08.902Z,97
2018-09-06T00:02:11.009Z,97
2018-09-06T00:03:13.099Z,97
2018-09-06T00:04:15.599Z,97
2018-09-06T00:05:17.706Z,97
2018-09-06T00:06:19.805Z,97
2018-09-06T00:07:21.929Z,97
2018-09-06T00:08:25.092Z,98
2018-09-06T00:09:27.587Z,98
2018-09-06T00:10:29.680Z,98
2018-09-06T00:11:32.085Z,98
2018-09-06T00:12:34.176Z,98
2018-09-06T00:13:36.567Z,98
2018-09-06T00:14:38.674Z,98
2018-09-06T00:15:40.767Z,98
2018-09-06T00:16:42.877Z,98
2018-09-06T00:17:44.977Z,99
2018-09-06T00:18:47.084Z,98
2018-09-06T00:19:49.175Z,98
2018-09-06T00:20:51.288Z,98
2018-09-06T00:21:53.682Z,98
2018-09-06T00:22:55.780Z,98
2018-09-06T00:23:57.894Z,99
2018-09-06T00:25:00.570Z,99
2018-09-06T00:26:02.677Z,99
2018-09-06T00:27:04.784Z,99
2018-09-06T00:28:06.889Z,99
2018-09-06T00:29:09.682Z,99
2018-09-06T00:30:11.786Z,99
2018-09-06T00:31:14.169Z,100
2018-09-06T00:32:16.564Z,99
2018-09-06T00:33:18.671Z,100
2018-09-06T00:34:21.064Z,99
2018-09-06T00:35:23.158Z,99
2018-09-06T00:36:25.280Z,100
2018-09-06T00:37:27.377Z,100
2018-09-06T00:38:29.480Z,100
2018-09-06T00:39:31.868Z,100
2018-09-06T00:40:34.273Z,100
2018-09-06T00:41:36.372Z,100
2018-09-06T00:42:38.763Z,100
2018-09-06T00:43:40.860Z,100
2018-09-06T00:44:42.980Z,100
2018-09-06T00:45:45.069Z,100
2018-09-06T00:46:47.171Z,100
2018-09-06T00:47:49.283Z,100
2018-09-06T00:48:51.370Z,100
2018-09-06T00:49:53.484Z,100
2018-09-06T00:50:55.585Z,100
2018-09-06T00:51:57.696Z,100
2018-09-06T00:52:59.781Z,100
2018-09-06T00:54:01.906Z,100
2018-09-06T00:55:04.390Z,100
2018-09-06T00:56:06.492Z,100
2018-09-06T00:57:08.615Z,100
2018-09-06T00:58:10.709Z,100
2018-09-06T00:59:13.206Z,100
2018-09-06T01:00:15.318Z,100
2018-09-06T01:01:17.418Z,100
2018-09-06T01:02:19.510Z,100
2018-09-06T01:03:21.615Z,100
2018-09-06T01:04:23.711Z,100
2018-09-06T01:05:25.810Z,100
2018-09-06T01:06:27.925Z,100
2018-09-06T01:07:30.318Z,100
2018-09-06T01:08:32.414Z,100
2018-09-06T01:09:34.536Z,100
2018-09-06T01:10:36.635Z,100
2018-09-06T01:11:39.025Z,100
2018-09-06T01:12:41.522Z,100
2018-09-06T01:13:43.613Z,100
2018-09-06T01:14:45.716Z,100
2018-09-06T01:15:47.826Z,100
2018-09-06T01:16:49.936Z,100
2018-09-06T01:17:52.047Z,100
2018-09-06T01:18:54.148Z,100
2018-09-06T01:19:56.257Z,100
2018-09-06T01:20:58.760Z,100
2018-09-06T01:22:00.850Z,100
2018-09-06T01:23:03.016Z,100
2018-09-06T01:24:05.376Z,100
2018-09-06T01:25:07.481Z,100
2018-09-06T01:26:09.568Z,100
2018-09-06T01:27:11.680Z,100
2018-09-06T01:28:14.086Z,100
2018-09-06T01:29:16.881Z,100
2018-09-06T01:30:19.011Z,100
2018-09-06T01:31:21.093Z,100
2018-09-06T01:32:23.197Z,100
2018-09-06T01:33:25.602Z,100
2018-09-06T01:34:27.707Z,100
2018-09-06T01:35:29.801Z,100
2018-09-06T01:36:31.910Z,100
2018-09-06T01:37:34.008Z,100
2018-09-06T01:38:36.190Z,100
2018-09-06T01:39:38.232Z,100
2018-09-06T01:40:40.618Z,100
2018-09-06T01:41:42.707Z,100
2018-09-06T01:42:44.827Z,100
2018-09-06T01:43:46.925Z,100
2018-09-06T01:44:49.024Z,100
2018-09-06T01:45:51.423Z,100
2018-09-06T01:46:53.518Z,100
2018-09-06T01:47:55.912Z,100
2018-09-06T01:48:58.023Z,100
2018-09-06T01:50:00.143Z,100
2018-09-06T01:51:02.235Z,100
2018-09-06T01:52:04.340Z,100
2018-09-06T01:53:06.438Z,100
2018-09-06T01:54:08.827Z,100
2018-09-06T01:55:10.944Z,100
2018-09-06T01:56:13.049Z,100
2018-09-06T01:57:15.149Z,100
2018-09-06T01:58:17.553Z,100
2018-09-06T01:59:20.072Z,100
2018-09-06T02:00:22.161Z,100
2018-09-06T02:01:24.269Z,100
2018-09-06T02:02:26.381Z,100
2018-09-06T02:03:28.471Z,100
2018-09-06T02:04:30.579Z,100
2018-09-06T02:05:32.683Z,100
2018-09-06T02:06:34.774Z,100
2018-09-06T02:07:37.162Z,100
2018-09-06T02:08:39.274Z,100
2018-09-06T02:09:41.772Z,100
2018-09-06T02:10:43.882Z,100
2018-09-06T02:11:45.988Z,100
2018-09-06T02:12:48.083Z,100
2018-09-06T02:13:50.190Z,100
2018-09-06T02:14:52.304Z,100
2018-09-06T02:15:54.678Z,100
2018-09-06T02:16:56.789Z,100
2018-09-06T02:17:58.891Z,100
2018-09-06T02:19:00.986Z,100
2018-09-06T02:20:03.107Z,100
2018-09-06T02:21:05.203Z,100
2018-09-06T02:22:07.309Z,100
2018-09-06T02:23:09.691Z,100
2018-09-06T02:24:12.413Z,100
2018-09-06T02:25:14.503Z,100
2018-09-06T02:26:16.606Z,100
2018-09-06T02:27:18.725Z,100
2018-09-06T02:28:20.814Z,100
2018-09-06T02:29:22.925Z,100
2018-09-06T02:30:25.027Z,100
2018-09-06T02:31:27.144Z,100
2018-09-06T02:32:29.227Z,100
2018-09-06T02:33:31.638Z,100
2018-09-06T02:34:33.745Z,100
2018-09-06T02:35:35.866Z,100
2018-09-06T02:36:37.958Z,100
2018-09-06T02:37:41.382Z,100
2018-09-06T02:38:43.775Z,100
2018-09-06T02:39:46.327Z,100
2018-09-06T02:40:48.810Z,100
2018-09-06T02:41:50.927Z,100
2018-09-06T02:42:53.021Z,100
2018-09-06T02:43:55.129Z,100
2018-09-06T02:44:57.247Z,100
2018-09-06T02:45:59.629Z,100
2018-09-06T02:47:02.020Z,100
2018-09-06T02:48:04.139Z,100
2018-09-06T02:49:06.226Z,100
2018-09-06T02:50:08.340Z,100
2018-09-06T02:51:10.458Z,100
2018-09-06T02:52:12.861Z,100
2018-09-06T02:53:14.986Z,100
2018-09-06T02:54:17.089Z,100
2018-09-06T02:55:19.579Z,100
2018-09-06T02:56:22.061Z,100
2018-09-06T02:57:24.182Z,100
2018-09-06T02:58:26.598Z,100
2018-09-06T02:59:28.987Z,100
2018-09-06T03:00:31.783Z,100
2018-09-06T03:01:33.876Z,100
2018-09-06T03:02:36.288Z,100
2018-09-06T03:03:38.395Z,100
2018-09-06T03:04:40.798Z,100
2018-09-06T03:05:42.886Z,100
2018-09-06T03:06:44.997Z,100
2018-09-06T03:07:47.096Z,100
2018-09-06T03:08:49.195Z,100
2018-09-06T03:09:51.619Z,100
2018-09-06T03:10:53.709Z,100
2018-09-06T03:11:55.819Z,100
2018-09-06T03:12:57.930Z,100
2018-09-06T03:14:00.418Z,100
2018-09-06T03:15:02.902Z,100
2018-09-06T03:16:06.005Z,100
2018-09-06T03:17:08.100Z,100
2018-09-06T03:18:10.495Z,100
2018-09-06T03:19:12.618Z,100
2018-09-06T03:20:14.720Z,100
2018-09-06T03:21:16.816Z,100
2018-09-06T03:22:18.937Z,100
2018-09-06T03:23:21.323Z,100
2018-09-06T03:24:23.426Z,100
2018-09-06T03:25:25.535Z,100
2018-09-06T03:26:27.622Z,100
2018-09-06T03:27:29.741Z,100
2018-09-06T03:28:32.238Z,100
2018-09-06T03:29:34.347Z,100
2018-09-06T03:30:36.447Z,100
2018-09-06T03:31:38.569Z,100
2018-09-06T03:32:40.987Z,100
2018-09-06T03:33:43.084Z,100
2018-09-06T03:34:45.199Z,100
2018-09-06T03:35:47.353Z,100
2018-09-06T03:36:49.406Z,100
2018-09-06T03:37:51.792Z,100
2018-09-06T03:38:54.204Z,100
2018-09-06T03:39:56.294Z,100
2018-09-06T03:40:58.400Z,100
2018-09-06T03:42:00.899Z,100
2018-09-06T03:43:03.382Z,100
2018-09-06T03:44:05.896Z,100
2018-09-06T03:45:08.291Z,100
2018-09-06T03:46:11.070Z,100
2018-09-06T03:47:13.464Z,100
2018-09-06T03:48:15.579Z,100
2018-09-06T03:49:17.682Z,100
2018-09-06T03:50:19.780Z,100
2018-09-06T03:51:21.882Z,100
2018-09-06T03:52:24.001Z,100
2018-09-06T03:53:26.109Z,100
2018-09-06T03:54:28.203Z,100
2018-09-06T03:55:30.314Z,100
2018-09-06T03:56:32.706Z,100
2018-09-06T03:57:34.804Z,100
2018-09-06T03:58:36.922Z,100
2018-09-06T03:59:39.690Z,100
2018-09-06T04:00:42.373Z,100
2018-09-06T04:01:44.485Z,100
2018-09-06T04:02:46.601Z,100
2018-09-06T04:03:48.978Z,100
2018-09-06T04:04:51.095Z,100
2018-09-06T04:05:53.189Z,100
2018-09-06T04:06:55.861Z,100
2018-09-06T04:07:57.980Z,100
2018-09-06T04:09:00.067Z,100
2018-09-06T04:10:02.487Z,100
2018-09-06T04:11:04.586Z,100
2018-09-06T04:12:07.399Z,100
2018-09-06T04:13:09.491Z,100
2018-09-06T04:14:11.996Z,100
2018-09-06T04:15:14.118Z,100
2018-09-06T04:16:16.211Z,100
2018-09-06T04:17:18.618Z,100
2018-09-06T04:18:20.752Z,100
2018-09-06T04:19:23.207Z,100
2018-09-06T04:20:25.313Z,100
2018-09-06T04:21:27.429Z,100
2018-09-06T04:22:29.532Z,100
2018-09-06T04:23:31.652Z,100
2018-09-06T04:24:33.761Z,100
2018-09-06T04:25:36.251Z,100
2018-09-06T04:26:38.371Z,100
2018-09-06T04:27:40.764Z,100
2018-09-06T04:28:42.852Z,100
2018-09-06T04:29:44.959Z,100
2018-09-06T04:30:47.063Z,100
2018-09-06T04:31:49.162Z,100
2018-09-06T04:32:51.278Z,100
2018-09-06T04:33:53.383Z,100
2018-09-06T04:34:55.486Z,100
2018-09-06T04:35:57.640Z,100
2018-09-06T04:36:59.704Z,100
2018-09-06T04:38:01.802Z,100
2018-09-06T04:39:03.906Z,100
2018-09-06T04:40:06.028Z,100
2018-09-06T04:41:08.117Z,100
2018-09-06T04:42:10.526Z,100
2018-09-06T04:43:12.628Z,100
2018-09-06T04:44:14.736Z,100
2018-09-06T04:45:16.838Z,100
2018-09-06T04:46:18.951Z,100
2018-09-06T04:47:21.060Z,100
2018-09-06T04:48:23.162Z,100
2018-09-06T04:49:25.571Z,100
2018-09-06T04:50:27.967Z,100
2018-09-06T04:51:30.360Z,100
2018-09-06T04:52:32.470Z,100
2018-09-06T04:53:34.580Z,100
2018-09-06T04:54:36.670Z,100
2018-09-06T04:55:39.165Z,100
2018-09-06T04:56:41.262Z,100
2018-09-06T04:57:43.659Z,100
2018-09-06T04:58:45.772Z,100
2018-09-06T04:59:47.876Z,100
2018-09-06T05:00:50.367Z,100
2018-09-06T05:01:52.781Z,100
2018-09-06T05:02:54.881Z,100
2018-09-06T05:03:57.665Z,100
2018-09-06T05:04:59.758Z,100
2018-09-06T05:06:01.888Z,100
2018-09-06T05:07:04.269Z,100
2018-09-06T05:08:06.666Z,100
2018-09-06T05:09:08.762Z,100
2018-09-06T05:10:11.168Z,100
2018-09-06T05:11:13.264Z,100
2018-09-06T05:12:15.370Z,100
2018-09-06T05:13:17.481Z,100
2018-09-06T05:14:19.879Z,100
2018-09-06T05:15:22.392Z,100
2018-09-06T05:16:24.497Z,100
2018-09-06T05:17:26.607Z,100
2018-09-06T05:18:28.695Z,100
2018-09-06T05:19:30.811Z,100
2018-09-06T05:20:33.203Z,100
2018-09-06T05:21:35.306Z,100
2018-09-06T05:22:37.708Z,100
2018-09-06T05:23:39.799Z,100
2018-09-06T05:24:41.910Z,100
2018-09-06T05:25:44.025Z,100
2018-09-06T05:26:46.531Z,100
2018-09-06T05:27:48.631Z,100
2018-09-06T05:28:50.737Z,100
2018-09-06T05:29:52.836Z,100
2018-09-06T05:30:55.319Z,100
2018-09-06T05:31:57.358Z,100
2018-09-06T05:32:59.466Z,100
2018-09-06T05:34:01.846Z,100
2018-09-06T05:35:04.326Z,100
2018-09-06T05:36:06.469Z,100
2018-09-06T05:37:08.479Z,100
2018-09-06T05:38:10.592Z,100
2018-09-06T05:39:13.301Z,100
2018-09-06T05:40:15.413Z,100
2018-09-06T05:41:17.516Z,100
2018-09-06T05:42:20.230Z,100
2018-09-06T05:43:22.337Z,100
2018-09-06T05:44:24.431Z,100
2018-09-06T05:45:26.536Z,100
2018-09-06T05:46:29.336Z,100
2018-09-06T05:47:32.020Z,100
2018-09-06T05:48:34.084Z,100
2018-09-06T05:49:36.187Z,100
2018-09-06T05:50:38.297Z,100
2018-09-06T05:51:40.389Z,100
2018-09-06T05:52:42.794Z,100
2018-09-06T05:53:45.201Z,100
2018-09-06T05:54:47.611Z,100
2018-09-06T05:55:49.718Z,100
2018-09-06T05:56:51.816Z,100
2018-09-06T05:57:54.303Z,100
2018-09-06T05:58:56.789Z,100
2018-09-06T05:59:58.956Z,100
2018-09-06T06:01:00.995Z,100
2018-09-06T06:02:03.095Z,100
2018-09-06T06:03:05.196Z,100
2018-09-06T06:04:07.296Z,100
2018-09-06T06:05:09.748Z,100
2018-09-06T06:06:12.092Z,100
2018-09-06T06:07:14.575Z,100
2018-09-06T06:08:16.998Z,100
2018-09-06T06:09:19.106Z,100
2018-09-06T06:10:21.208Z,100
2018-09-06T06:11:23.328Z,100
2018-09-06T06:12:25.428Z,100
2018-09-06T06:13:27.534Z,100
2018-09-06T06:14:29.641Z,100
2018-09-06T06:15:32.156Z,100
2018-09-06T06:16:34.247Z,100
2018-09-06T06:17:36.357Z,100
2018-09-06T06:18:38.840Z,100
2018-09-06T06:19:41.938Z,100
2018-09-06T06:20:44.039Z,100
2018-09-06T06:21:46.160Z,100
2018-09-06T06:22:48.262Z,100
2018-09-06T06:23:50.661Z,100
2018-09-06T06:24:52.750Z,100
2018-09-06T06:25:54.878Z,100
2018-09-06T06:26:56.977Z,100
2018-09-06T06:27:59.078Z,100
2018-09-06T06:29:02.262Z,100
2018-09-06T06:30:04.356Z,99
2018-09-06T06:31:06.750Z,99
2018-09-06T06:32:09.321Z,99
2018-09-06T06:33:11.419Z,99
2018-09-06T06:34:13.833Z,99
2018-09-06T06:35:15.936Z,99
2018-09-06T06:36:18.030Z,99
2018-09-06T06:37:20.136Z,99
2018-09-06T06:38:22.652Z,99
2018-09-06T06:39:24.753Z,98
2018-09-06T06:40:26.850Z,98
2018-09-06T06:41:28.967Z,98
2018-09-06T06:42:31.072Z,98
2018-09-06T06:43:33.757Z,98
2018-09-06T06:44:36.257Z,97
2018-09-06T06:45:38.673Z,97
2018-09-06T06:46:40.779Z,97
2018-09-06T06:47:42.887Z,97
2018-09-06T06:48:45.003Z,97
2018-09-06T06:49:47.097Z,97
2018-09-06T06:50:49.513Z,97
2018-09-06T06:51:51.628Z,96
2018-09-06T06:52:54.045Z,96
2018-09-06T06:53:56.176Z,96
2018-09-06T06:54:58.566Z,96
2018-09-06T06:56:00.671Z,96
2018-09-06T06:57:03.067Z,95
2018-09-06T06:58:05.189Z,95
2018-09-06T06:59:07.571Z,95
2018-09-06T07:00:09.973Z,95
2018-09-06T07:01:12.374Z,95
2018-09-06T07:02:14.468Z,95
2018-09-06T07:03:16.589Z,95
2018-09-06T07:04:18.774Z,94
2018-09-06T07:05:21.259Z,94
2018-09-06T07:06:23.751Z,94
2018-09-06T07:07:25.861Z,94
2018-09-06T07:08:27.970Z,95
2018-09-06T07:09:30.084Z,94
2018-09-06T07:10:32.478Z,94
2018-09-06T07:11:34.577Z,94
2018-09-06T07:12:37.077Z,94
2018-09-06T07:13:39.480Z,94
2018-09-06T07:14:41.579Z,93
2018-09-06T07:15:43.688Z,93
2018-09-06T07:16:45.807Z,93
2018-09-06T07:17:47.915Z,93
2018-09-06T07:18:50.417Z,93
2018-09-06T07:19:52.531Z,93
2018-09-06T07:20:54.671Z,91
2018-09-06T07:21:56.776Z,91
2018-09-06T07:22:58.912Z,91
2018-09-06T07:24:01.012Z,91
2018-09-06T07:25:03.636Z,90
2018-09-06T07:26:05.703Z,91
2018-09-06T07:27:08.111Z,91
2018-09-06T07:28:10.637Z,90
2018-09-06T07:29:12.778Z,90
2018-09-06T07:30:14.905Z,90
2018-09-06T07:31:17.008Z,90
2018-09-06T07:32:19.136Z,90
2018-09-06T07:33:21.235Z,89
2018-09-06T07:34:23.349Z,90
2018-09-06T07:35:25.904Z,89
2018-09-06T07:36:28.014Z,88
2018-09-06T07:37:30.424Z,89
2018-09-06T07:38:32.838Z,88
2018-09-06T07:39:34.949Z,88
2018-09-06T07:40:37.385Z,88
2018-09-06T07:41:39.491Z,88
2018-09-06T07:42:41.607Z,88
2018-09-06T07:43:43.716Z,88
2018-09-06T07:44:45.822Z,87
2018-09-06T07:45:47.931Z,87
2018-09-06T07:46:50.061Z,87
2018-09-06T07:47:52.146Z,87
2018-09-06T07:48:54.551Z,87
2018-09-06T07:49:56.736Z,88
2018-09-06T07:50:58.785Z,87
2018-09-06T07:52:00.909Z,86
2018-09-06T07:53:03.016Z,86
2018-09-06T07:54:05.132Z,86
2018-09-06T07:55:07.233Z,86
2018-09-06T07:56:09.753Z,85
2018-09-06T07:57:12.251Z,84
2018-09-06T07:58:14.362Z,84
2018-09-06T07:59:16.488Z,84
2018-09-06T08:00:18.585Z,83
2018-09-06T08:01:21.005Z,84
2018-09-06T08:02:23.127Z,83
2018-09-06T08:03:25.559Z,82
2018-09-06T08:04:28.060Z,83
2018-09-06T08:05:30.179Z,82
2018-09-06T08:06:32.297Z,81
2018-09-06T08:07:34.410Z,80
2018-09-06T08:08:36.542Z,80
2018-09-06T08:09:38.644Z,80
2018-09-06T08:10:40.755Z,79
2018-09-06T08:11:42.874Z,80
2018-09-06T08:12:45.279Z,79
2018-09-06T08:13:47.380Z,79
2018-09-06T08:14:49.498Z,78
2018-09-06T08:15:51.622Z,79
2018-09-06T08:16:53.744Z,78
2018-09-06T08:17:55.837Z,77
2018-09-06T08:18:58.077Z,76
2018-09-06T08:20:00.129Z,77
2018-09-06T08:21:02.239Z,77
2018-09-06T08:22:04.354Z,76
2018-09-06T08:23:06.480Z,76
2018-09-06T08:24:08.645Z,76
2018-09-06T08:25:10.709Z,76
2018-09-06T08:26:12.813Z,75
2018-09-06T08:27:14.920Z,75
2018-09-06T08:28:17.342Z,75
2018-09-06T08:29:19.857Z,75
2018-09-06T08:30:21.958Z,75
2018-09-06T08:31:24.642Z,75
2018-09-06T08:32:26.690Z,76
2018-09-06T08:33:29.081Z,76
2018-09-06T08:34:31.208Z,76
2018-09-06T08:35:33.709Z,75
2018-09-06T08:36:35.837Z,74
2018-09-06T08:37:37.934Z,72
2018-09-06T08:38:40.057Z,74
2018-09-06T08:39:42.164Z,73
2018-09-06T08:40:44.276Z,74
2018-09-06T08:41:46.406Z,76
2018-09-06T08:42:48.511Z,75
2018-09-06T08:43:50.634Z,75
2018-09-06T08:44:53.041Z,76
2018-09-06T08:45:55.166Z,75
2018-09-06T08:46:57.269Z,77
2018-09-06T08:47:59.390Z,77
2018-09-06T08:49:01.502Z,77
2018-09-06T08:50:03.611Z,75
2018-09-06T08:51:05.752Z,76
2018-09-06T08:52:07.948Z,75
2018-09-06T08:53:10.438Z,74
2018-09-06T08:54:12.839Z,74
2018-09-06T08:55:14.955Z,74
2018-09-06T08:56:17.071Z,73
2018-09-06T08:57:19.176Z,72
2018-09-06T08:58:21.348Z,72
2018-09-06T08:59:23.427Z,72
2018-09-06T09:00:25.567Z,72
2018-09-06T09:01:27.660Z,72
2018-09-06T09:02:29.817Z,71
2018-09-06T09:03:31.901Z,71
2018-09-06T09:04:34.044Z,71
2018-09-06T09:05:36.148Z,71
2018-09-06T09:06:38.573Z,71
2018-09-06T09:07:40.730Z,70
2018-09-06T09:08:43.239Z,69
2018-09-06T09:09:45.774Z,69
2018-09-06T09:10:47.856Z,71
2018-09-06T09:11:49.996Z,71
2018-09-06T09:12:52.771Z,71
2018-09-06T09:13:55.254Z,70
2018-09-06T09:14:57.388Z,71
2018-09-06T09:15:59.850Z,71
2018-09-06T09:17:02.263Z,70
2018-09-06T09:18:04.392Z,69
2018-09-06T09:19:06.518Z,70
2018-09-06T09:20:08.627Z,69
2018-09-06T09:21:10.759Z,69
2018-09-06T09:22:12.940Z,68
2018-09-06T09:23:14.983Z,68
2018-09-06T09:24:17.105Z,67
2018-09-06T09:25:19.216Z,67
2018-09-06T09:26:21.338Z,68
2018-09-06T09:27:23.764Z,67
2018-09-06T09:28:25.879Z,66
2018-09-06T09:29:27.989Z,66
2018-09-06T09:30:30.182Z,66
2018-09-06T09:31:32.223Z,65
2018-09-06T09:32:34.344Z,64
2018-09-06T09:33:36.465Z,63
2018-09-06T09:34:38.591Z,64
2018-09-06T09:35:40.996Z,64
2018-09-06T09:36:43.168Z,63
2018-09-06T09:37:45.283Z,64
2018-09-06T09:38:47.400Z,65
2018-09-06T09:39:49.590Z,65
2018-09-06T09:40:52.479Z,64
2018-09-06T09:41:54.611Z,63
2018-09-06T09:42:56.729Z,63
2018-09-06T09:43:59.165Z,63
2018-09-06T09:45:01.293Z,63
2018-09-06T09:48:08.237Z,63
2018-09-06T09:49:10.370Z,61
2018-09-06T09:51:14.966Z,59
2018-09-06T09:52:17.679Z,60
2018-09-06T09:53:19.784Z,61
2018-09-06T09:54:21.904Z,61
2018-09-06T09:55:24.039Z,60
2018-09-06T09:56:26.161Z,60
2018-09-06T09:57:28.275Z,61
2018-09-06T09:58:30.399Z,61
2018-09-06T09:59:32.952Z,60
2018-09-06T10:00:35.698Z,60
2018-09-06T10:01:37.827Z,61
2018-09-06T10:02:40.549Z,60
2018-09-06T10:03:42.976Z,59
2018-09-06T10:04:45.113Z,58
2018-09-06T10:05:47.910Z,58
2018-09-06T10:06:50.027Z,59
2018-09-06T10:07:52.141Z,58
2018-09-06T10:08:54.257Z,59
2018-09-06T10:09:56.382Z,59
2018-09-06T10:10:58.806Z,58
2018-09-06T10:12:00.921Z,59
2018-09-06T10:13:03.064Z,58
2018-09-06T10:14:05.175Z,57
2018-09-06T10:15:07.580Z,57
2018-09-06T10:16:09.694Z,58
2018-09-06T10:17:12.522Z,58
2018-09-06T10:18:14.683Z,58
2018-09-06T10:19:16.762Z,58
2018-09-06T10:20:18.883Z,56
2018-09-06T10:21:21.302Z,56
2018-09-06T10:22:23.741Z,57
2018-09-06T10:23:25.860Z,57
2018-09-06T10:24:28.374Z,57
2018-09-06T10:25:30.785Z,57
2018-09-06T10:26:32.913Z,57
2018-09-06T10:27:35.340Z,56
2018-09-06T10:28:37.615Z,57
2018-09-06T10:29:39.934Z,57
2018-09-06T10:30:44.431Z,57
2018-09-06T10:31:47.330Z,56
2018-09-06T10:32:52.913Z,55
2018-09-06T10:33:56.636Z,55
2018-09-06T10:35:06.239Z,55
2018-09-06T10:36:09.365Z,54
2018-09-06T10:37:12.748Z,55
2018-09-06T10:38:17.773Z,55
2018-09-06T10:39:23.068Z,55
2018-09-06T10:40:32.334Z,55
2018-09-06T10:41:37.068Z,55
2018-09-06T10:42:43.682Z,55
2018-09-06T10:43:48.946Z,55
2018-09-06T10:44:52.834Z,53
2018-09-06T10:45:59.835Z,53
2018-09-06T10:47:04.056Z,54
2018-09-06T10:48:09.104Z,54
2018-09-06T10:49:14.958Z,54
2018-09-06T10:50:19.751Z,53
2018-09-06T10:51:25.025Z,53
2018-09-06T10:52:30.738Z,52
2018-09-06T10:53:36.743Z,53
2018-09-06T10:54:43.429Z,54
2018-09-06T10:55:48.810Z,55
2018-09-06T10:56:53.852Z,53
2018-09-06T10:57:59.444Z,53
2018-09-06T10:59:05.339Z,54
2018-09-06T11:00:11.310Z,53
2018-09-06T11:01:17.496Z,52
2018-09-06T11:02:24.699Z,52
2018-09-06T11:03:30.014Z,51
2018-09-06T11:04:33.806Z,50
2018-09-06T11:05:39.255Z,50
2018-09-06T11:06:45.480Z,51
2018-09-06T11:07:50.207Z,51
2018-09-06T11:08:55.648Z,50
2018-09-06T11:10:00.239Z,51
2018-09-06T11:11:05.421Z,49
2018-09-06T11:12:10.952Z,49
2018-09-06T11:13:15.477Z,48
2018-09-06T11:14:20.810Z,48
2018-09-06T11:15:25.514Z,48
2018-09-06T11:16:33.241Z,47
2018-09-06T11:17:41.090Z,48
2018-09-06T11:18:47.053Z,49
2018-09-06T11:19:54.433Z,50
2018-09-06T11:20:58.952Z,49
2018-09-06T11:22:06.761Z,48
2018-09-06T11:23:11.609Z,48
2018-09-06T11:24:17.805Z,48
2018-09-06T11:25:23.202Z,48
2018-09-06T11:26:27.204Z,47
2018-09-06T11:27:34.187Z,46
2018-09-06T11:28:39.757Z,47
2018-09-06T11:29:46.669Z,50
2018-09-06T11:30:52.313Z,49
2018-09-06T11:31:59.188Z,48
2018-09-06T11:33:06.015Z,47
2018-09-06T11:34:11.692Z,46
2018-09-06T11:35:18.514Z,48
2018-09-06T11:36:26.562Z,48
2018-09-06T11:37:31.503Z,49
2018-09-06T11:38:43.662Z,47
2018-09-06T11:39:54.742Z,46
2018-09-06T11:40:59.469Z,47
2018-09-06T11:42:09.674Z,46
2018-09-06T11:43:14.245Z,47
2018-09-06T11:44:18.756Z,48
2018-09-06T11:45:30.678Z,48
2018-09-06T11:46:38.198Z,49
2018-09-06T11:47:45.060Z,47
2018-09-06T11:48:54.606Z,46
2018-09-06T11:50:07.487Z,48
2018-09-06T11:51:13.462Z,47
2018-09-06T11:52:19.772Z,46
2018-09-06T11:53:25.207Z,47
2018-09-06T11:54:33.550Z,48
2018-09-06T11:55:45.093Z,49
2018-09-06T11:56:54.888Z,49
2018-09-06T11:58:01.215Z,49
2018-09-06T11:59:10.791Z,49
2018-09-06T12:00:20.973Z,48
2018-09-06T12:01:27.209Z,48
2018-09-06T12:02:31.021Z,47
2018-09-06T12:03:36.282Z,47
2018-09-06T12:04:42.262Z,47
2018-09-06T12:05:50.250Z,47
2018-09-06T12:06:57.263Z,45
2018-09-06T12:08:04.832Z,46
2018-09-06T12:09:09.804Z,47
2018-09-06T12:10:15.421Z,48
2018-09-06T12:11:22.837Z,47
2018-09-06T12:12:28.653Z,47
2018-09-06T12:13:35.970Z,48
2018-09-06T12:14:43.294Z,48
2018-09-06T12:15:51.568Z,47
2018-09-06T12:17:02.916Z,46
2018-09-06T12:18:10.166Z,45
2018-09-06T12:19:15.437Z,46
2018-09-06T12:20:22.494Z,45
2018-09-06T12:21:27.233Z,45
2018-09-06T12:22:34.556Z,45
2018-09-06T12:23:40.755Z,46
2018-09-06T12:24:49.974Z,45
2018-09-06T12:25:56.630Z,45
2018-09-06T12:27:05.463Z,46
2018-09-06T12:28:11.508Z,47
2018-09-06T12:29:17.861Z,47
2018-09-06T12:30:24.036Z,46
2018-09-06T12:31:31.409Z,46
2018-09-06T12:32:37.826Z,46
2018-09-06T12:33:45.683Z,45
2018-09-06T12:34:50.644Z,45
2018-09-06T12:35:56.911Z,45
2018-09-06T12:37:03.022Z,45
2018-09-06T12:38:11.278Z,46
2018-09-06T12:39:17.298Z,47
2018-09-06T12:40:23.733Z,48
2018-09-06T12:41:30.342Z,46
2018-09-06T12:42:40.961Z,45
2018-09-06T12:43:46.725Z,46
2018-09-06T12:44:55.809Z,46
2018-09-06T12:46:05.712Z,44
2018-09-06T12:47:09.421Z,44
2018-09-06T12:48:16.539Z,44
2018-09-06T12:49:23.930Z,43
2018-09-06T12:50:30.483Z,45
2018-09-06T12:51:36.985Z,45
2018-09-06T12:52:44.298Z,45
2018-09-06T12:53:54.643Z,46
2018-09-06T12:55:00.744Z,45
2018-09-06T12:56:13.883Z,46
2018-09-06T12:57:24.228Z,46
2018-09-06T12:58:32.429Z,46
2018-09-06T12:59:39.626Z,45
2018-09-06T13:00:50.731Z,45
2018-09-06T13:02:00.696Z,45
2018-09-06T13:03:05.293Z,45
2018-09-06T13:04:12.983Z,46
2018-09-06T13:05:17.231Z,47
2018-09-06T13:06:27.805Z,46
2018-09-06T13:07:32.005Z,45
2018-09-06T13:08:38.224Z,46
2018-09-06T13:09:45.601Z,46
2018-09-06T13:10:51.008Z,45
2018-09-06T13:11:55.843Z,46
2018-09-06T13:13:02.994Z,45
2018-09-06T13:14:10.322Z,45
2018-09-06T13:15:16.896Z,46
2018-09-06T13:16:21.940Z,46
2018-09-06T13:17:26.175Z,46
2018-09-06T13:18:34.468Z,46
2018-09-06T13:19:39.315Z,45
2018-09-06T13:20:44.476Z,44
2018-09-06T13:21:47.509Z,44
2018-09-06T13:22:53.321Z,45
2018-09-06T13:23:57.116Z,46
2018-09-06T13:25:01.048Z,46
2018-09-06T13:26:05.055Z,47
2018-09-06T13:27:08.746Z,47
2018-09-06T13:28:11.827Z,47
2018-09-06T13:29:13.953Z,47
2018-09-06T13:30:16.068Z,47
2018-09-06T13:31:18.552Z,46
2018-09-06T13:32:20.671Z,47
2018-09-06T13:33:22.829Z,47
2018-09-06T13:34:24.918Z,47
2018-09-06T13:35:27.474Z,47
2018-09-06T13:36:29.563Z,47
2018-09-06T13:37:31.691Z,47
2018-09-06T13:38:34.500Z,47
2018-09-06T13:39:36.994Z,48
2018-09-06T13:40:39.132Z,46
2018-09-06T13:41:41.248Z,47
2018-09-06T13:42:43.365Z,46
2018-09-06T13:43:45.797Z,46
2018-09-06T13:44:47.906Z,46
2018-09-06T13:45:50.029Z,46
2018-09-06T13:46:52.148Z,48
2018-09-06T13:47:54.284Z,46
2018-09-06T13:48:56.391Z,47
2018-09-06T13:49:58.524Z,46
2018-09-06T13:51:00.651Z,46
2018-09-06T13:52:02.801Z,47
2018-09-06T13:53:04.897Z,47
2018-09-06T13:54:07.409Z,47
2018-09-06T13:55:09.522Z,48
2018-09-06T13:56:11.933Z,47
2018-09-06T13:57:14.659Z,46
2018-09-06T13:58:17.060Z,45
2018-09-06T13:59:19.184Z,45
2018-09-06T14:00:21.305Z,46
2018-09-06T14:01:23.417Z,46
2018-09-06T14:02:25.542Z,46
2018-09-06T14:03:27.677Z,46
2018-09-06T14:04:29.795Z,46
2018-09-06T14:05:31.922Z,47
2018-09-06T14:06:34.052Z,46
2018-09-06T14:07:36.566Z,46
2018-09-06T14:08:38.682Z,46
2018-09-06T14:09:40.808Z,46
2018-09-06T14:10:43.222Z,46
2018-09-06T14:11:45.632Z,47
2018-09-06T14:12:47.737Z,47
2018-09-06T14:13:50.160Z,47
2018-09-06T14:14:52.277Z,47
2018-09-06T14:15:54.385Z,48
2018-09-06T14:16:56.517Z,47
2018-09-06T14:17:58.626Z,48
2018-09-06T14:19:00.751Z,47
2018-09-06T14:20:03.161Z,48
2018-09-06T14:21:05.302Z,48
2018-09-06T14:22:07.415Z,48
2018-09-06T14:23:09.539Z,49
2018-09-06T14:24:12.166Z,48
2018-09-06T14:25:14.617Z,48
2018-09-06T14:26:17.041Z,48
2018-09-06T14:27:19.556Z,48
2018-09-06T14:28:21.668Z,49
2018-09-06T14:29:23.792Z,49
2018-09-06T14:30:25.918Z,49
2018-09-06T14:31:28.047Z,49
2018-09-06T14:32:30.187Z,48
2018-09-06T14:33:32.713Z,49
2018-09-06T14:34:34.824Z,49
2018-09-06T14:35:36.942Z,48
2018-09-06T14:36:39.070Z,49
2018-09-06T14:37:41.174Z,48
2018-09-06T14:38:43.824Z,48
2018-09-06T14:39:45.882Z,48
2018-09-06T14:40:47.996Z,47
2018-09-06T14:41:50.128Z,47
2018-09-06T14:42:52.631Z,48
2018-09-06T14:43:55.119Z,48
2018-09-06T14:44:57.209Z,48
2018-09-06T14:45:59.342Z,46
2018-09-06T14:47:01.453Z,46
2018-09-06T14:48:03.573Z,46
2018-09-06T14:49:05.998Z,46